createdAt,value
2023-03-27T00:00:16.840Z,4.32
2023-03-27T00:02:46.972Z,4.33
2023-03-27T00:05:15.057Z,4.31
2023-03-27T00:07:42.973Z,4.32
2023-03-27T00:10:11.059Z,4.27
2023-03-27T00:12:39.882Z,4.26
2023-03-27T00:15:08.273Z,4.27
2023-03-27T00:17:37.044Z,4.25
2023-03-27T00:20:06.111Z,4.26
2023-03-27T00:22:33.825Z,4.27
2023-03-27T00:25:01.691Z,4.33
2023-03-27T00:27:30.164Z,4.30
2023-03-27T00:29:57.841Z,4.30
2023-03-27T00:32:25.866Z,4.27
2023-03-27T00:34:53.657Z,4.26
2023-03-27T00:37:21.811Z,4.22
2023-03-27T00:39:50.536Z,4.22
2023-03-27T00:42:23.041Z,4.22
2023-03-27T00:44:51.839Z,4.22
2023-03-27T00:47:31.053Z,4.24
2023-03-27T00:50:01.306Z,4.20
2023-03-27T00:52:31.512Z,4.18
2023-03-27T00:55:01.746Z,4.15
2023-03-27T00:57:31.456Z,4.15
2023-03-27T01:00:01.139Z,4.17
2023-03-27T01:02:29.142Z,4.12
2023-03-27T01:04:57.088Z,4.11
2023-03-27T01:07:25.454Z,4.07
2023-03-27T01:09:53.807Z,4.03
2023-03-27T01:12:30.842Z,4.03
2023-03-27T01:15:17.532Z,4.02
2023-03-27T01:18:21.004Z,4.04
2023-03-27T01:21:26.214Z,4.06
2023-03-27T01:24:24.689Z,4.05
2023-03-27T01:27:06.383Z,4.01
2023-03-27T01:29:47.047Z,3.99
2023-03-27T01:32:41.818Z,3.97
2023-03-27T01:35:37.305Z,3.97
2023-03-27T01:38:29.573Z,3.94
2023-03-27T01:41:25.603Z,3.92
2023-03-27T01:43:56.181Z,3.95
2023-03-27T01:46:53.240Z,3.96
2023-03-27T01:50:00.789Z,3.96
2023-03-27T01:52:32.038Z,3.94
2023-03-27T01:55:05.219Z,3.95
2023-03-27T01:57:48.859Z,3.94
2023-03-27T02:00:22.097Z,3.93
2023-03-27T02:03:14.593Z,3.90
2023-03-27T02:05:51.659Z,3.83
2023-03-27T02:08:27.886Z,3.78
2023-03-27T02:11:04.669Z,3.79
2023-03-27T02:13:41.101Z,3.80
2023-03-27T02:16:12.483Z,3.79
2023-03-27T02:18:47.685Z,3.74
2023-03-27T02:21:16.490Z,3.74
2023-03-27T02:23:44.966Z,3.70
2023-03-27T02:26:14.061Z,3.63
2023-03-27T02:28:54.408Z,3.59
2023-03-27T02:31:41.270Z,3.55
2023-03-27T02:34:26.331Z,3.50
2023-03-27T02:37:19.891Z,3.46
2023-03-27T02:40:27.718Z,3.40
2023-03-27T02:43:19.928Z,3.40
2023-03-27T02:46:09.179Z,3.43
2023-03-27T02:48:40.909Z,3.41
2023-03-27T02:51:16.584Z,3.46
2023-03-27T02:54:12.774Z,3.44
2023-03-27T02:56:46.459Z,3.42
2023-03-27T02:59:36.838Z,3.44
2023-03-27T03:02:09.645Z,3.45
2023-03-27T03:04:57.256Z,3.42
2023-03-27T03:07:38.308Z,3.30
2023-03-27T03:10:09.716Z,3.40
2023-03-27T03:12:38.025Z,3.43
2023-03-27T03:15:08.119Z,3.32
2023-03-27T03:17:37.501Z,3.41
2023-03-27T03:20:07.467Z,3.34
2023-03-27T03:22:36.423Z,3.30
2023-03-27T03:25:04.866Z,3.36
2023-03-27T03:27:34.197Z,3.38
2023-03-27T03:30:16.577Z,3.35
2023-03-27T03:33:00.234Z,3.32
2023-03-27T03:35:28.374Z,3.35
2023-03-27T03:37:59.491Z,3.35
2023-03-27T03:40:28.934Z,3.36
2023-03-27T03:42:59.049Z,3.37
2023-03-27T03:45:29.725Z,3.39
2023-03-27T03:47:57.893Z,3.37
2023-03-27T03:50:25.873Z,3.36
2023-03-27T03:52:53.747Z,3.40
2023-03-27T03:55:21.405Z,3.41
2023-03-27T03:57:50.267Z,3.40
2023-03-27T04:00:26.916Z,3.38
2023-03-27T04:02:57.257Z,3.32
2023-03-27T04:05:26.149Z,3.36
2023-03-27T04:07:59.496Z,3.39
2023-03-27T04:10:27.904Z,3.42
2023-03-27T04:12:58.607Z,3.41
2023-03-27T04:15:33.291Z,3.40
2023-03-27T04:18:20.294Z,3.35
2023-03-27T04:20:54.507Z,3.46
2023-03-27T04:23:30.510Z,3.52
2023-03-27T04:26:00.442Z,3.57
2023-03-27T04:28:38.495Z,3.66
2023-03-27T04:31:26.368Z,3.61
2023-03-27T04:34:14.438Z,3.66
2023-03-27T04:37:03.674Z,3.61
2023-03-27T04:39:37.310Z,3.71
2023-03-27T04:42:05.743Z,3.65
2023-03-27T04:44:35.105Z,3.79
2023-03-27T04:47:03.861Z,3.77
2023-03-27T04:49:38.708Z,3.81
2023-03-27T04:52:18.102Z,3.94
2023-03-27T04:54:46.817Z,3.92
2023-03-27T04:57:16.144Z,3.98
2023-03-27T04:59:44.195Z,3.91
2023-03-27T05:02:33.799Z,3.79
2023-03-27T05:05:09.176Z,3.69
2023-03-27T05:07:38.078Z,3.68
2023-03-27T05:10:08.728Z,3.73
2023-03-27T05:12:43.008Z,3.72
2023-03-27T05:15:15.071Z,3.69
2023-03-27T05:17:47.256Z,3.79
2023-03-27T05:20:17.081Z,3.78
2023-03-27T05:22:45.987Z,3.79
2023-03-27T05:25:23.391Z,3.84
2023-03-27T05:27:52.391Z,3.86
2023-03-27T05:30:22.704Z,3.86
2023-03-27T05:32:59.553Z,3.85
2023-03-27T05:35:30.287Z,3.82
2023-03-27T05:37:59.604Z,3.82
2023-03-27T05:40:34.378Z,3.85
2023-03-27T05:43:03.474Z,3.85
2023-03-27T05:45:33.399Z,3.80
2023-03-27T05:48:02.935Z,3.87
2023-03-27T05:50:35.482Z,3.85
2023-03-27T05:53:10.301Z,3.86
2023-03-27T05:55:49.797Z,3.93
2023-03-27T05:58:41.745Z,3.90
2023-03-27T06:01:11.257Z,3.90
2023-03-27T06:03:39.485Z,3.89
2023-03-27T06:06:15.494Z,3.85
2023-03-27T06:08:46.264Z,3.77
2023-03-27T06:11:17.738Z,3.76
2023-03-27T06:13:46.729Z,3.66
2023-03-27T06:16:26.128Z,3.68
2023-03-27T06:19:26.238Z,3.73
2023-03-27T06:21:54.065Z,3.74
2023-03-27T06:24:22.531Z,3.76
2023-03-27T06:26:51.116Z,3.81
2023-03-27T06:29:21.342Z,3.84
2023-03-27T06:31:51.791Z,3.87
2023-03-27T06:34:39.868Z,3.93
2023-03-27T06:37:37.092Z,3.94
2023-03-27T06:40:09.812Z,3.90
2023-03-27T06:42:41.172Z,3.93
2023-03-27T06:45:38.383Z,3.98
2023-03-27T06:48:37.837Z,3.95
2023-03-27T06:51:08.111Z,4.07
2023-03-27T06:53:38.057Z,4.07
2023-03-27T06:56:07.095Z,4.03
2023-03-27T06:58:54.685Z,4.09
2023-03-27T07:01:27.726Z,4.12
2023-03-27T07:04:18.828Z,4.17
2023-03-27T07:06:54.504Z,4.28
2023-03-27T07:09:22.373Z,4.41
2023-03-27T07:12:00.430Z,4.58
2023-03-27T07:14:31.127Z,4.67
2023-03-27T07:16:59.393Z,4.70
2023-03-27T07:19:31.957Z,4.85
2023-03-27T07:22:12.656Z,5.01
2023-03-27T07:24:41.614Z,5.19
2023-03-27T07:27:11.248Z,5.38
2023-03-27T07:29:39.354Z,5.42
2023-03-27T07:32:09.275Z,5.50
2023-03-27T07:34:43.486Z,5.47
2023-03-27T07:37:17.049Z,5.48
2023-03-27T07:40:06.996Z,5.61
2023-03-27T07:42:35.503Z,5.67
2023-03-27T07:45:06.678Z,5.73
2023-03-27T07:47:36.882Z,5.78
2023-03-27T07:50:10.450Z,5.67
2023-03-27T07:52:43.776Z,5.72
2023-03-27T07:55:16.163Z,5.80
2023-03-27T07:58:00.793Z,5.78
2023-03-27T08:00:36.090Z,5.90
2023-03-27T08:03:16.791Z,6.02
2023-03-27T08:05:56.727Z,6.07
2023-03-27T08:08:26.653Z,6.02
2023-03-27T08:10:59.352Z,5.99
2023-03-27T08:13:33.668Z,6.05
2023-03-27T08:16:05.620Z,6.07
2023-03-27T08:18:33.867Z,6.08
2023-03-27T08:21:03.928Z,6.14
2023-03-27T08:23:33.951Z,6.14
2023-03-27T08:26:20.999Z,6.15
2023-03-27T08:28:58.725Z,6.15
2023-03-27T08:31:31.477Z,5.98
2023-03-27T08:34:02.182Z,5.92
2023-03-27T08:36:42.780Z,5.96
2023-03-27T08:39:13.486Z,6.03
2023-03-27T08:41:58.235Z,6.25
2023-03-27T08:44:33.522Z,6.48
2023-03-27T08:47:36.163Z,6.72
2023-03-27T08:50:28.995Z,6.94
2023-03-27T08:53:14.799Z,7.00
2023-03-27T08:55:44.321Z,7.08
2023-03-27T08:58:33.740Z,7.17
2023-03-27T09:01:41.444Z,7.32
2023-03-27T09:04:29.270Z,7.60
2023-03-27T09:07:11.823Z,7.88
2023-03-27T09:10:15.437Z,7.86
2023-03-27T09:13:29.989Z,7.94
2023-03-27T09:16:04.349Z,8.14
2023-03-27T09:18:43.959Z,8.26
2023-03-27T09:21:19.825Z,8.38
2023-03-27T09:23:49.179Z,8.45
2023-03-27T09:26:36.876Z,8.45
2023-03-27T09:29:22.457Z,8.62
2023-03-27T09:31:59.102Z,8.51
2023-03-27T09:34:30.627Z,8.38
2023-03-27T09:36:59.343Z,8.42
2023-03-27T09:39:32.840Z,8.32
2023-03-27T09:42:20.292Z,8.32
2023-03-27T09:44:52.837Z,8.45
2023-03-27T09:47:22.496Z,8.29
2023-03-27T09:49:58.065Z,8.32
2023-03-27T09:52:41.984Z,8.36
2023-03-27T09:55:31.804Z,8.47
2023-03-27T09:58:24.935Z,8.65
2023-03-27T10:01:16.215Z,8.69
2023-03-27T10:03:54.195Z,8.61
2023-03-27T10:06:44.765Z,8.69
2023-03-27T10:09:29.342Z,8.77
2023-03-27T10:12:08.155Z,8.74
2023-03-27T10:14:45.930Z,8.67
2023-03-27T10:17:38.170Z,8.68
2023-03-27T10:20:19.700Z,8.70
2023-03-27T10:23:01.625Z,8.72
2023-03-27T10:25:38.058Z,8.67
2023-03-27T10:28:36.338Z,8.66
2023-03-27T10:31:31.509Z,8.51
2023-03-27T10:34:29.451Z,8.43
2023-03-27T10:37:28.168Z,8.39
2023-03-27T10:40:36.617Z,8.36
2023-03-27T10:43:14.420Z,8.34
2023-03-27T10:45:48.192Z,8.28
2023-03-27T10:48:33.049Z,8.38
2023-03-27T10:51:05.845Z,8.56
2023-03-27T10:54:09.634Z,8.67
2023-03-27T10:57:08.827Z,8.79
2023-03-27T10:59:45.855Z,8.92
2023-03-27T11:02:33.240Z,8.79
2023-03-27T11:05:43.895Z,8.78
2023-03-27T11:08:43.035Z,8.89
2023-03-27T11:11:16.986Z,9.06
2023-03-27T11:13:48.940Z,9.11
2023-03-27T11:16:22.250Z,9.15
2023-03-27T11:19:41.268Z,9.21
2023-03-27T11:22:43.410Z,9.16
2023-03-27T11:25:51.750Z,9.00
2023-03-27T11:28:39.801Z,8.87
2023-03-27T11:31:25.959Z,8.72
2023-03-27T11:34:02.114Z,8.60
2023-03-27T11:36:35.177Z,8.49
2023-03-27T11:39:44.086Z,8.58
2023-03-27T11:42:19.553Z,8.63
2023-03-27T11:44:50.824Z,8.69
2023-03-27T11:47:55.927Z,8.58
2023-03-27T11:51:14.893Z,8.49
2023-03-27T11:54:00.160Z,8.39
2023-03-27T11:56:56.576Z,8.33
2023-03-27T11:59:57.257Z,8.42
2023-03-27T12:02:49.916Z,8.46
2023-03-27T12:05:57.477Z,8.44
2023-03-27T12:08:46.019Z,8.32
2023-03-27T12:11:14.374Z,8.18
2023-03-27T12:14:18.464Z,8.09
2023-03-27T12:17:02.624Z,8.12
2023-03-27T12:20:22.199Z,8.13
2023-03-27T12:23:08.422Z,8.16
2023-03-27T12:25:56.271Z,8.10
2023-03-27T12:29:23.859Z,7.98
2023-03-27T12:32:33.811Z,8.17
2023-03-27T12:35:22.436Z,8.38
2023-03-27T12:37:59.627Z,8.41
2023-03-27T12:40:48.999Z,8.40
2023-03-27T12:43:21.588Z,8.43
2023-03-27T12:46:13.203Z,8.50
2023-03-27T12:48:58.750Z,8.53
2023-03-27T12:52:04.407Z,8.54
2023-03-27T12:55:18.525Z,8.52
2023-03-27T12:58:03.159Z,8.65
2023-03-27T13:01:00.557Z,8.54
2023-03-27T13:04:19.862Z,8.51
2023-03-27T13:07:06.945Z,8.38
2023-03-27T13:10:13.426Z,8.27
2023-03-27T13:12:57.793Z,8.17
2023-03-27T13:15:43.585Z,8.12
2023-03-27T13:18:24.129Z,8.14
2023-03-27T13:21:07.654Z,8.14
2023-03-27T13:23:54.756Z,8.26
2023-03-27T13:26:46.749Z,8.38
2023-03-27T13:29:17.798Z,8.23
2023-03-27T13:31:49.434Z,8.16
2023-03-27T13:34:41.715Z,8.17
2023-03-27T13:37:15.004Z,8.25
2023-03-27T13:39:55.710Z,8.33
2023-03-27T13:42:36.015Z,8.33
2023-03-27T13:45:26.427Z,8.42
2023-03-27T13:48:48.572Z,8.49
2023-03-27T13:51:26.668Z,8.38
2023-03-27T13:54:34.122Z,8.21
2023-03-27T13:57:16.256Z,8.18
2023-03-27T14:00:10.429Z,8.17
2023-03-27T14:03:02.194Z,8.11
2023-03-27T14:05:56.476Z,8.04
2023-03-27T14:08:35.480Z,7.96
2023-03-27T14:11:34.689Z,7.88
2023-03-27T14:14:21.890Z,7.82
2023-03-27T14:16:52.012Z,7.84
2023-03-27T14:19:45.317Z,7.94
2023-03-27T14:22:24.167Z,7.95
2023-03-27T14:25:03.091Z,7.94
2023-03-27T14:27:46.886Z,7.86
2023-03-27T14:30:27.112Z,7.68
2023-03-27T14:33:20.085Z,7.45
2023-03-27T14:35:57.605Z,7.44
2023-03-27T14:38:26.261Z,7.33
2023-03-27T14:41:06.555Z,7.21
2023-03-27T14:43:52.271Z,7.14
2023-03-27T14:46:22.926Z,7.05
2023-03-27T14:48:58.071Z,6.89
2023-03-27T14:51:37.158Z,6.80
2023-03-27T14:57:19.323Z,6.54
2023-03-27T14:59:54.448Z,6.44
2023-03-27T15:02:26.756Z,6.42
2023-03-27T15:05:24.666Z,6.39
2023-03-27T15:08:00.545Z,6.39
2023-03-27T15:10:53.101Z,6.39
2023-03-27T15:13:47.996Z,6.41
2023-03-27T15:16:25.155Z,6.42
2023-03-27T15:19:15.513Z,6.39
2023-03-27T15:21:57.829Z,6.40
2023-03-27T15:24:33.538Z,6.44
2023-03-27T15:27:02.176Z,6.47
2023-03-27T15:29:42.815Z,6.50
2023-03-27T15:32:18.922Z,6.51
2023-03-27T15:34:58.172Z,6.53
2023-03-27T15:37:28.798Z,6.52
2023-03-27T15:40:22.598Z,6.55
2023-03-27T15:43:03.298Z,6.50
2023-03-27T15:45:41.578Z,6.49
2023-03-27T15:48:22.209Z,6.45
2023-03-27T15:51:07.721Z,6.32
2023-03-27T15:53:58.840Z,6.15
2023-03-27T15:56:39.551Z,5.94
2023-03-27T15:59:09.916Z,5.84
2023-03-27T16:01:52.436Z,5.71
2023-03-27T16:04:22.494Z,5.64
2023-03-27T16:06:52.513Z,5.61
2023-03-27T16:09:26.165Z,5.58
2023-03-27T16:11:54.917Z,5.56
2023-03-27T16:14:29.840Z,5.52
2023-03-27T16:17:12.549Z,5.48
2023-03-27T16:19:48.924Z,5.49
2023-03-27T16:22:31.430Z,5.47
2023-03-27T16:25:00.673Z,5.47
2023-03-27T16:27:40.005Z,5.46
2023-03-27T16:30:10.822Z,5.44
2023-03-27T16:32:38.559Z,5.42
2023-03-27T16:35:07.445Z,5.38
2023-03-27T16:37:35.482Z,5.33
2023-03-27T16:40:03.348Z,5.23
2023-03-27T16:42:31.454Z,5.18
2023-03-27T16:44:59.286Z,5.14
2023-03-27T16:47:27.017Z,5.10
2023-03-27T16:50:10.214Z,5.03
2023-03-27T16:52:38.540Z,5.04
2023-03-27T16:55:07.725Z,5.01
2023-03-27T16:57:36.553Z,5.06
2023-03-27T17:00:05.747Z,5.08
2023-03-27T17:02:35.092Z,5.12
2023-03-27T17:05:07.949Z,5.15
2023-03-27T17:07:36.233Z,5.19
2023-03-27T17:10:04.383Z,5.21
2023-03-27T17:12:32.475Z,5.24
2023-03-27T17:15:00.652Z,5.24
2023-03-27T17:17:31.973Z,5.22
2023-03-27T17:20:00.806Z,5.22
2023-03-27T17:22:30.132Z,5.22
2023-03-27T17:25:01.294Z,5.20
2023-03-27T17:27:29.277Z,5.21
2023-03-27T17:29:57.657Z,5.21
2023-03-27T17:32:26.946Z,5.17
2023-03-27T17:34:55.079Z,5.20
2023-03-27T17:37:23.520Z,5.18
2023-03-27T17:39:51.528Z,5.18
2023-03-27T17:42:19.169Z,5.17
2023-03-27T17:44:46.862Z,5.20
2023-03-27T17:47:14.636Z,5.20
2023-03-27T17:49:43.377Z,5.16
2023-03-27T17:52:12.505Z,5.22
2023-03-27T17:54:40.701Z,5.23
2023-03-27T17:57:08.428Z,5.22
2023-03-27T17:59:36.741Z,5.18
2023-03-27T18:02:04.762Z,5.12
2023-03-27T18:04:33.287Z,5.11
2023-03-27T18:07:01.339Z,5.10
2023-03-27T18:09:32.538Z,5.05
2023-03-27T18:12:00.289Z,4.97
2023-03-27T18:14:28.025Z,4.96
2023-03-27T18:16:55.743Z,4.95
2023-03-27T18:19:25.203Z,4.91
2023-03-27T18:21:52.813Z,4.94
2023-03-27T18:24:20.512Z,4.94
2023-03-27T18:26:52.418Z,4.98
2023-03-27T18:29:21.392Z,5.01
2023-03-27T18:31:49.242Z,5.02
2023-03-27T18:34:17.142Z,5.00
2023-03-27T18:36:50.751Z,5.07
2023-03-27T18:39:18.949Z,5.06
2023-03-27T18:41:46.892Z,5.10
2023-03-27T18:44:14.708Z,5.12
2023-03-27T18:46:42.361Z,5.11
2023-03-27T18:49:21.607Z,5.15
2023-03-27T18:51:51.798Z,5.14
2023-03-27T18:54:19.527Z,5.16
2023-03-27T18:56:48.865Z,5.15
2023-03-27T18:59:16.772Z,5.15
2023-03-27T19:01:44.489Z,5.18
2023-03-27T19:04:13.559Z,5.19
2023-03-27T19:06:42.951Z,5.16
2023-03-27T19:09:10.749Z,5.16
2023-03-27T19:11:38.448Z,5.19
2023-03-27T19:14:11.256Z,5.20
2023-03-27T19:16:58.061Z,5.20
2023-03-27T19:19:46.594Z,5.20
2023-03-27T19:22:14.654Z,5.23
2023-03-27T19:24:47.040Z,5.23
2023-03-27T19:27:23.638Z,5.25
2023-03-27T19:29:55.420Z,5.24
2023-03-27T19:32:24.559Z,5.23
2023-03-27T19:34:52.512Z,5.26
2023-03-27T19:37:20.382Z,5.23
2023-03-27T19:39:48.079Z,5.24
2023-03-27T19:42:15.973Z,5.21
2023-03-27T19:44:44.072Z,5.18
2023-03-27T19:47:11.779Z,5.20
2023-03-27T19:49:40.165Z,5.17
2023-03-27T19:52:17.054Z,5.15
2023-03-27T19:54:44.701Z,5.13
2023-03-27T19:57:12.500Z,5.13
2023-03-27T19:59:40.335Z,5.10
2023-03-27T20:02:09.746Z,5.11
2023-03-27T20:04:37.490Z,5.10
2023-03-27T20:07:07.159Z,5.05
2023-03-27T20:09:34.814Z,5.08
2023-03-27T20:12:04.231Z,5.11
2023-03-27T20:14:32.534Z,5.10
2023-03-27T20:17:00.422Z,5.10
2023-03-27T20:19:30.543Z,5.11
2023-03-27T20:22:00.974Z,5.08
2023-03-27T20:24:29.403Z,5.02
2023-03-27T20:27:00.290Z,5.01
2023-03-27T20:29:28.065Z,4.94
2023-03-27T20:31:55.885Z,4.87
2023-03-27T20:34:24.154Z,4.77
2023-03-27T20:36:55.023Z,4.66
2023-03-27T20:39:52.116Z,4.52
2023-03-27T20:42:23.237Z,4.43
2023-03-27T20:44:58.568Z,4.30
2023-03-27T20:47:26.483Z,4.22
2023-03-27T20:49:59.073Z,4.12
2023-03-27T20:52:26.821Z,4.04
2023-03-27T20:54:54.613Z,3.96
2023-03-27T20:57:22.718Z,3.91
2023-03-27T20:59:50.957Z,3.83
2023-03-27T21:02:19.644Z,3.73
2023-03-27T21:04:47.920Z,3.72
2023-03-27T21:07:16.205Z,3.67
2023-03-27T21:09:46.751Z,3.63
2023-03-27T21:12:14.412Z,3.59
2023-03-27T21:14:42.113Z,3.53
2023-03-27T21:17:23.541Z,3.47
2023-03-27T21:19:54.707Z,3.43
2023-03-27T21:22:22.460Z,3.40
2023-03-27T21:24:50.506Z,3.34
2023-03-27T21:27:18.284Z,3.30
2023-03-27T21:29:45.964Z,3.22
2023-03-27T21:32:13.729Z,3.18
2023-03-27T21:34:47.398Z,3.16
2023-03-27T21:37:15.174Z,3.12
2023-03-27T21:39:42.881Z,3.09
2023-03-27T21:42:10.638Z,3.07
2023-03-27T21:44:38.305Z,3.09
2023-03-27T21:47:05.996Z,3.04
2023-03-27T21:49:33.745Z,3.07
2023-03-27T21:52:01.374Z,3.00
2023-03-27T21:54:28.987Z,2.97
2023-03-27T21:56:56.777Z,2.92
2023-03-27T21:59:25.311Z,2.92
2023-03-27T22:01:53.826Z,2.90
2023-03-27T22:04:21.962Z,2.90
2023-03-27T22:06:49.892Z,2.87
2023-03-27T22:09:18.092Z,2.82
2023-03-27T22:11:45.928Z,2.83
2023-03-27T22:14:13.708Z,2.85
2023-03-27T22:16:41.560Z,2.82
2023-03-27T22:19:09.823Z,2.81
2023-03-27T22:21:37.697Z,2.79
2023-03-27T22:24:06.215Z,2.75
2023-03-27T22:26:37.472Z,2.67
2023-03-27T22:29:09.302Z,2.66
2023-03-27T22:31:37.157Z,2.58
2023-03-27T22:34:05.512Z,2.57
2023-03-27T22:36:33.722Z,2.52
2023-03-27T22:39:01.447Z,2.51
2023-03-27T22:41:29.171Z,2.47
2023-03-27T22:43:56.828Z,2.41
2023-03-27T22:46:24.588Z,2.37
2023-03-27T22:48:56.978Z,2.33
2023-03-27T22:51:25.483Z,2.32
2023-03-27T22:53:53.262Z,2.29
2023-03-27T22:56:21.285Z,2.33
2023-03-27T22:58:49.070Z,2.31
2023-03-27T23:01:16.835Z,2.31
2023-03-27T23:03:44.617Z,2.32
2023-03-27T23:06:19.678Z,2.34
2023-03-27T23:08:50.965Z,2.45
2023-03-27T23:11:19.485Z,2.51
2023-03-27T23:13:47.323Z,2.59
2023-03-27T23:16:15.093Z,2.63
2023-03-27T23:18:42.819Z,2.66
2023-03-27T23:21:12.560Z,2.68
2023-03-27T23:23:41.120Z,2.64
2023-03-27T23:26:09.571Z,2.62
2023-03-27T23:28:40.117Z,2.55
2023-03-27T23:31:11.498Z,2.48
2023-03-27T23:33:41.192Z,2.42
2023-03-27T23:36:11.610Z,2.35
2023-03-27T23:38:39.956Z,2.28
2023-03-27T23:41:08.642Z,2.21
2023-03-27T23:43:55.101Z,2.14
2023-03-27T23:46:22.829Z,2.09
2023-03-27T23:48:50.558Z,2.05
2023-03-27T23:51:18.252Z,2.04
2023-03-27T23:53:46.060Z,2.01
2023-03-27T23:56:13.781Z,2.00
2023-03-27T23:58:41.705Z,1.97
